sensor_id;sensor_type;location;lat;lon;timestamp;P1;durP1;ratioP1;P2;durP2;ratioP2
12038;SDS011;6080;48.818;9.526;2023-05-29T03:00:17;26.80;;;25.13;;
12038;SDS011;6080;48.818;9.526;2023-05-29T03:02:43;18.37;;;17.07;;
12038;SDS011;6080;48.818;9.526;2023-05-29T03:05:09;23.50;;;21.83;;
12038;SDS011;6080;48.818;9.526;2023-05-29T03:07:35;30.07;;;28.00;;
12038;SDS011;6080;48.818;9.526;2023-05-29T03:10:01;25.93;;;24.33;;
12038;SDS011;6080;48.818;9.526;2023-05-29T03:12:29;17.47;;;16.47;;
12038;SDS011;6080;48.818;9.526;2023-05-29T03:14:54;16.80;;;15.80;;
12038;SDS011;6080;48.818;9.526;2023-05-29T03:17:21;14.10;;;13.10;;
12038;SDS011;6080;48.818;9.526;2023-05-29T03:19:47;14.13;;;12.97;;
12038;SDS011;6080;48.818;9.526;2023-05-29T03:22:13;13.37;;;12.37;;
12038;SDS011;6080;48.818;9.526;2023-05-29T03:24:38;39.20;;;36.77;;
12038;SDS011;6080;48.818;9.526;2023-05-29T03:27:04;44.83;;;42.23;;
12038;SDS011;6080;48.818;9.526;2023-05-29T03:29:33;62.97;;;59.57;;
12038;SDS011;6080;48.818;9.526;2023-05-29T03:31:59;59.83;;;56.37;;
12038;SDS011;6080;48.818;9.526;2023-05-29T03:34:24;59.70;;;56.37;;
12038;SDS011;6080;48.818;9.526;2023-05-29T03:36:50;102.53;;;96.83;;
12038;SDS011;6080;48.818;9.526;2023-05-29T03:39:16;92.90;;;87.60;;
12038;SDS011;6080;48.818;9.526;2023-05-29T03:41:42;46.50;;;43.67;;
12038;SDS011;6080;48.818;9.526;2023-05-29T03:44:07;85.90;;;81.07;;
12038;SDS011;6080;48.818;9.526;2023-05-29T03:46:34;43.40;;;40.93;;
12038;SDS011;6080;48.818;9.526;2023-05-29T03:49:00;46.17;;;43.47;;
12038;SDS011;6080;48.818;9.526;2023-05-29T03:51:26;23.53;;;21.83;;
12038;SDS011;6080;48.818;9.526;2023-05-29T03:53:52;13.73;;;12.80;;
12038;SDS011;6080;48.818;9.526;2023-05-29T03:56:17;20.70;;;19.33;;
12038;SDS011;6080;48.818;9.526;2023-05-29T03:58:43;33.70;;;31.67;;
12038;SDS011;6080;48.818;9.526;2023-05-29T04:01:09;42.50;;;40.10;;
12038;SDS011;6080;48.818;9.526;2023-05-29T04:03:35;54.00;;;50.60;;
12038;SDS011;6080;48.818;9.526;2023-05-29T04:06:03;50.60;;;47.77;;
12038;SDS011;6080;48.818;9.526;2023-05-29T04:08:29;54.40;;;51.53;;
12038;SDS011;6080;48.818;9.526;2023-05-29T04:10:54;19.53;;;17.90;;
12038;SDS011;6080;48.818;9.526;2023-05-29T04:13:20;9.77;;;8.87;;
12038;SDS011;6080;48.818;9.526;2023-05-29T04:15:46;9.87;;;9.13;;
12038;SDS011;6080;48.818;9.526;2023-05-29T04:18:12;9.20;;;8.50;;
12038;SDS011;6080;48.818;9.526;2023-05-29T04:20:38;10.13;;;9.43;;
12038;SDS011;6080;48.818;9.526;2023-05-29T04:23:04;11.73;;;10.83;;
12038;SDS011;6080;48.818;9.526;2023-05-29T04:25:29;16.43;;;11.03;;
12038;SDS011;6080;48.818;9.526;2023-05-29T04:27:58;13.57;;;12.67;;
12038;SDS011;6080;48.818;9.526;2023-05-29T04:30:27;11.40;;;10.50;;
12038;SDS011;6080;48.818;9.526;2023-05-29T04:32:53;12.03;;;10.93;;
12038;SDS011;6080;48.818;9.526;2023-05-29T04:35:19;12.20;;;11.30;;
12038;SDS011;6080;48.818;9.526;2023-05-29T04:37:47;20.93;;;19.50;;
12038;SDS011;6080;48.818;9.526;2023-05-29T04:40:12;40.93;;;38.43;;
12038;SDS011;6080;48.818;9.526;2023-05-29T04:42:42;68.63;;;65.03;;
12038;SDS011;6080;48.818;9.526;2023-05-29T04:45:10;49.20;;;46.63;;
12038;SDS011;6080;48.818;9.526;2023-05-29T04:47:36;19.67;;;18.33;;
12038;SDS011;6080;48.818;9.526;2023-05-29T04:50:12;39.73;;;37.33;;
12038;SDS011;6080;48.818;9.526;2023-05-29T04:52:38;13.00;;;12.10;;
12038;SDS011;6080;48.818;9.526;2023-05-29T04:55:05;12.97;;;12.13;;
12038;SDS011;6080;48.818;9.526;2023-05-29T04:57:31;21.87;;;20.37;;
12038;SDS011;6080;48.818;9.526;2023-05-29T04:59:57;9.67;;;8.77;;
12038;SDS011;6080;48.818;9.526;2023-05-29T05:02:23;10.03;;;9.13;;
12038;SDS011;6080;48.818;9.526;2023-05-29T05:04:49;26.47;;;24.87;;
12038;SDS011;6080;48.818;9.526;2023-05-29T05:07:15;23.63;;;22.23;;
12038;SDS011;6080;48.818;9.526;2023-05-29T05:09:41;8.63;;;8.07;;
12038;SDS011;6080;48.818;9.526;2023-05-29T05:12:08;12.80;;;11.87;;
12038;SDS011;6080;48.818;9.526;2023-05-29T05:14:34;9.47;;;8.57;;
12038;SDS011;6080;48.818;9.526;2023-05-29T05:17:00;9.77;;;8.80;;
12038;SDS011;6080;48.818;9.526;2023-05-29T05:19:25;10.90;;;9.98;;
12038;SDS011;6080;48.818;9.526;2023-05-29T05:21:51;9.40;;;8.60;;
12038;SDS011;6080;48.818;9.526;2023-05-29T05:24:17;9.20;;;8.45;;
12038;SDS011;6080;48.818;9.526;2023-05-29T05:26:42;14.65;;;13.65;;
12038;SDS011;6080;48.818;9.526;2023-05-29T05:29:08;13.43;;;12.10;;
12038;SDS011;6080;48.818;9.526;2023-05-29T05:31:34;22.23;;;20.80;;
12038;SDS011;6080;48.818;9.526;2023-05-29T05:33:59;18.38;;;17.15;;
12038;SDS011;6080;48.818;9.526;2023-05-29T05:36:25;19.15;;;17.73;;
12038;SDS011;6080;48.818;9.526;2023-05-29T05:38:51;12.02;;;11.02;;
12038;SDS011;6080;48.818;9.526;2023-05-29T05:41:17;11.18;;;10.38;;
12038;SDS011;6080;48.818;9.526;2023-05-29T05:43:42;16.25;;;15.00;;
12038;SDS011;6080;48.818;9.526;2023-05-29T05:46:08;13.43;;;12.52;;
12038;SDS011;6080;48.818;9.526;2023-05-29T05:48:34;11.07;;;10.27;;
12038;SDS011;6080;48.818;9.526;2023-05-29T05:51:00;8.63;;;8.00;;
12038;SDS011;6080;48.818;9.526;2023-05-29T05:53:25;7.50;;;6.80;;
12038;SDS011;6080;48.818;9.526;2023-05-29T05:55:51;7.95;;;7.25;;
12038;SDS011;6080;48.818;9.526;2023-05-29T05:58:17;9.70;;;7.75;;
12038;SDS011;6080;48.818;9.526;2023-05-29T06:00:42;8.25;;;7.65;;
12038;SDS011;6080;48.818;9.526;2023-05-29T06:03:08;8.07;;;6.53;;
12038;SDS011;6080;48.818;9.526;2023-05-29T06:05:34;8.32;;;7.47;;
12038;SDS011;6080;48.818;9.526;2023-05-29T06:08:01;10.60;;;9.70;;
12038;SDS011;6080;48.818;9.526;2023-05-29T06:10:27;22.92;;;21.58;;
12038;SDS011;6080;48.818;9.526;2023-05-29T06:12:53;20.40;;;18.98;;
12038;SDS011;6080;48.818;9.526;2023-05-29T06:15:19;20.70;;;19.40;;
12038;SDS011;6080;48.818;9.526;2023-05-29T06:17:44;24.55;;;22.90;;
12038;SDS011;6080;48.818;9.526;2023-05-29T06:20:10;12.23;;;11.23;;
12038;SDS011;6080;48.818;9.526;2023-05-29T06:22:37;10.63;;;9.85;;
12038;SDS011;6080;48.818;9.526;2023-05-29T06:25:03;7.63;;;7.03;;
12038;SDS011;6080;48.818;9.526;2023-05-29T06:27:29;10.32;;;9.05;;
12038;SDS011;6080;48.818;9.526;2023-05-29T06:29:55;11.07;;;10.13;;
12038;SDS011;6080;48.818;9.526;2023-05-29T06:32:20;10.75;;;9.82;;
12038;SDS011;6080;48.818;9.526;2023-05-29T06:34:47;14.05;;;13.05;;
12038;SDS011;6080;48.818;9.526;2023-05-29T06:37:12;13.18;;;12.20;;
12038;SDS011;6080;48.818;9.526;2023-05-29T06:39:38;13.82;;;12.90;;
12038;SDS011;6080;48.818;9.526;2023-05-29T06:42:07;12.32;;;11.32;;
12038;SDS011;6080;48.818;9.526;2023-05-29T06:44:33;13.20;;;12.18;;
12038;SDS011;6080;48.818;9.526;2023-05-29T06:46:59;11.23;;;10.40;;
12038;SDS011;6080;48.818;9.526;2023-05-29T06:49:25;11.07;;;10.27;;
12038;SDS011;6080;48.818;9.526;2023-05-29T06:51:51;11.38;;;10.57;;
12038;SDS011;6080;48.818;9.526;2023-05-29T06:54:16;10.57;;;9.45;;
12038;SDS011;6080;48.818;9.526;2023-05-29T06:56:42;8.88;;;8.07;;
12038;SDS011;6080;48.818;9.526;2023-05-29T06:59:08;10.07;;;9.18;;
12038;SDS011;6080;48.818;9.526;2023-05-29T07:01:34;9.38;;;8.20;;
12038;SDS011;6080;48.818;9.526;2023-05-29T07:04:00;12.20;;;11.20;;
12038;SDS011;6080;48.818;9.526;2023-05-29T07:06:26;12.82;;;11.95;;
12038;SDS011;6080;48.818;9.526;2023-05-29T07:08:52;14.82;;;13.77;;
12038;SDS011;6080;48.818;9.526;2023-05-29T07:11:18;13.93;;;12.55;;
12038;SDS011;6080;48.818;9.526;2023-05-29T07:13:43;9.43;;;8.63;;
12038;SDS011;6080;48.818;9.526;2023-05-29T07:16:09;8.60;;;7.93;;
12038;SDS011;6080;48.818;9.526;2023-05-29T07:18:35;7.70;;;6.47;;
12038;SDS011;6080;48.818;9.526;2023-05-29T07:21:01;7.65;;;6.55;;
12038;SDS011;6080;48.818;9.526;2023-05-29T07:23:26;7.53;;;6.78;;
12038;SDS011;6080;48.818;9.526;2023-05-29T07:25:52;10.18;;;9.45;;
12038;SDS011;6080;48.818;9.526;2023-05-29T07:28:18;11.23;;;10.32;;
12038;SDS011;6080;48.818;9.526;2023-05-29T07:30:43;8.75;;;8.15;;
12038;SDS011;6080;48.818;9.526;2023-05-29T07:33:10;7.90;;;7.30;;
12038;SDS011;6080;48.818;9.526;2023-05-29T07:35:35;9.68;;;8.88;;
12038;SDS011;6080;48.818;9.526;2023-05-29T07:38:01;8.82;;;8.10;;
12038;SDS011;6080;48.818;9.526;2023-05-29T07:40:27;11.32;;;10.32;;
12038;SDS011;6080;48.818;9.526;2023-05-29T07:42:52;10.13;;;9.32;;
12038;SDS011;6080;48.818;9.526;2023-05-29T07:45:18;10.88;;;10.10;;
12038;SDS011;6080;48.818;9.526;2023-05-29T07:47:44;11.07;;;10.25;;
12038;SDS011;6080;48.818;9.526;2023-05-29T07:50:10;9.20;;;8.40;;
12038;SDS011;6080;48.818;9.526;2023-05-29T07:52:36;8.88;;;7.88;;
12038;SDS011;6080;48.818;9.526;2023-05-29T07:55:02;9.02;;;8.27;;
12038;SDS011;6080;48.818;9.526;2023-05-29T07:57:28;8.65;;;7.95;;
12038;SDS011;6080;48.818;9.526;2023-05-29T07:59:54;7.78;;;7.22;;
12038;SDS011;6080;48.818;9.526;2023-05-29T08:02:20;8.88;;;8.23;;
12038;SDS011;6080;48.818;9.526;2023-05-29T08:04:46;11.38;;;10.30;;
12038;SDS011;6080;48.818;9.526;2023-05-29T08:07:12;10.23;;;9.43;;
12038;SDS011;6080;48.818;9.526;2023-05-29T08:09:38;8.95;;;8.25;;
12038;SDS011;6080;48.818;9.526;2023-05-29T08:12:04;9.73;;;8.55;;
12038;SDS011;6080;48.818;9.526;2023-05-29T08:14:31;8.18;;;7.43;;
12038;SDS011;6080;48.818;9.526;2023-05-29T08:16:57;7.38;;;6.78;;
12038;SDS011;6080;48.818;9.526;2023-05-29T08:19:23;11.52;;;8.32;;
12038;SDS011;6080;48.818;9.526;2023-05-29T08:21:49;12.77;;;11.68;;
12038;SDS011;6080;48.818;9.526;2023-05-29T08:24:15;12.35;;;11.40;;
12038;SDS011;6080;48.818;9.526;2023-05-29T08:26:41;15.18;;;13.98;;
12038;SDS011;6080;48.818;9.526;2023-05-29T08:29:08;13.10;;;12.00;;
12038;SDS011;6080;48.818;9.526;2023-05-29T08:31:34;13.05;;;12.20;;
12038;SDS011;6080;48.818;9.526;2023-05-29T08:34:00;14.73;;;13.63;;
12038;SDS011;6080;48.818;9.526;2023-05-29T08:36:26;14.57;;;13.38;;
12038;SDS011;6080;48.818;9.526;2023-05-29T08:38:52;14.88;;;13.80;;
12038;SDS011;6080;48.818;9.526;2023-05-29T08:41:25;9.98;;;8.85;;
12038;SDS011;6080;48.818;9.526;2023-05-29T08:44:22;8.30;;;7.60;;
12038;SDS011;6080;48.818;9.526;2023-05-29T08:46:54;9.07;;;8.23;;
12038;SDS011;6080;48.818;9.526;2023-05-29T08:49:21;11.43;;;10.30;;
12038;SDS011;6080;48.818;9.526;2023-05-29T08:51:49;9.15;;;8.38;;
12038;SDS011;6080;48.818;9.526;2023-05-29T08:54:22;9.32;;;8.43;;
12038;SDS011;6080;48.818;9.526;2023-05-29T08:56:48;12.23;;;10.77;;
12038;SDS011;6080;48.818;9.526;2023-05-29T08:59:14;8.75;;;7.95;;
12038;SDS011;6080;48.818;9.526;2023-05-29T09:01:42;9.90;;;9.10;;
12038;SDS011;6080;48.818;9.526;2023-05-29T09:04:09;9.88;;;9.15;;
12038;SDS011;6080;48.818;9.526;2023-05-29T09:06:35;10.23;;;9.25;;
12038;SDS011;6080;48.818;9.526;2023-05-29T09:09:01;8.73;;;8.02;;
12038;SDS011;6080;48.818;9.526;2023-05-29T09:11:29;11.20;;;10.13;;
12038;SDS011;6080;48.818;9.526;2023-05-29T09:13:55;11.00;;;10.23;;
12038;SDS011;6080;48.818;9.526;2023-05-29T09:16:22;13.25;;;12.07;;
12038;SDS011;6080;48.818;9.526;2023-05-29T09:18:48;10.07;;;9.20;;
12038;SDS011;6080;48.818;9.526;2023-05-29T09:21:24;7.72;;;6.95;;
12038;SDS011;6080;48.818;9.526;2023-05-29T09:23:52;9.57;;;8.65;;
12038;SDS011;6080;48.818;9.526;2023-05-29T09:26:20;7.93;;;7.07;;
12038;SDS011;6080;48.818;9.526;2023-05-29T09:28:48;9.20;;;7.85;;
12038;SDS011;6080;48.818;9.526;2023-05-29T09:31:15;9.18;;;8.23;;
12038;SDS011;6080;48.818;9.526;2023-05-29T09:33:47;8.32;;;7.53;;
12038;SDS011;6080;48.818;9.526;2023-05-29T09:36:23;9.40;;;8.57;;
12038;SDS011;6080;48.818;9.526;2023-05-29T09:38:50;10.05;;;9.05;;
12038;SDS011;6080;48.818;9.526;2023-05-29T09:41:23;11.57;;;10.82;;
12038;SDS011;6080;48.818;9.526;2023-05-29T09:43:49;14.45;;;13.52;;
12038;SDS011;6080;48.818;9.526;2023-05-29T09:46:15;16.05;;;14.73;;
12038;SDS011;6080;48.818;9.526;2023-05-29T09:48:45;17.85;;;16.73;;
12038;SDS011;6080;48.818;9.526;2023-05-29T09:51:20;19.27;;;17.95;;
12038;SDS011;6080;48.818;9.526;2023-05-29T09:53:48;15.63;;;14.60;;
12038;SDS011;6080;48.818;9.526;2023-05-29T09:56:16;28.80;;;27.20;;
12038;SDS011;6080;48.818;9.526;2023-05-29T09:58:43;54.63;;;51.38;;
12038;SDS011;6080;48.818;9.526;2023-05-29T10:01:11;62.08;;;58.60;;
12038;SDS011;6080;48.818;9.526;2023-05-29T10:03:38;74.97;;;71.03;;
12038;SDS011;6080;48.818;9.526;2023-05-29T10:06:04;66.07;;;62.53;;
12038;SDS011;6080;48.818;9.526;2023-05-29T10:08:34;70.03;;;66.53;;
12038;SDS011;6080;48.818;9.526;2023-05-29T10:11:03;66.63;;;63.08;;
12038;SDS011;6080;48.818;9.526;2023-05-29T10:13:36;73.20;;;69.30;;
12038;SDS011;6080;48.818;9.526;2023-05-29T10:16:03;81.10;;;77.05;;
12038;SDS011;6080;48.818;9.526;2023-05-29T10:18:42;69.88;;;66.15;;
12038;SDS011;6080;48.818;9.526;2023-05-29T10:21:11;75.70;;;71.68;;
12038;SDS011;6080;48.818;9.526;2023-05-29T10:23:38;68.93;;;65.50;;
12038;SDS011;6080;48.818;9.526;2023-05-29T10:26:10;72.50;;;68.72;;
12038;SDS011;6080;48.818;9.526;2023-05-29T10:28:41;64.25;;;60.90;;
12038;SDS011;6080;48.818;9.526;2023-05-29T10:31:14;56.90;;;53.70;;
12038;SDS011;6080;48.818;9.526;2023-05-29T10:36:55;52.95;;;50.28;;
12038;SDS011;6080;48.818;9.526;2023-05-29T10:39:27;51.13;;;48.33;;
12038;SDS011;6080;48.818;9.526;2023-05-29T10:41:53;46.90;;;44.28;;
12038;SDS011;6080;48.818;9.526;2023-05-29T10:47:01;49.38;;;46.70;;
12038;SDS011;6080;48.818;9.526;2023-05-29T10:49:29;40.17;;;37.95;;
12038;SDS011;6080;48.818;9.526;2023-05-29T10:51:56;38.53;;;36.35;;
12038;SDS011;6080;48.818;9.526;2023-05-29T10:54:24;41.33;;;38.97;;
12038;SDS011;6080;48.818;9.526;2023-05-29T10:56:55;42.28;;;39.97;;
12038;SDS011;6080;48.818;9.526;2023-05-29T10:59:23;36.55;;;34.38;;
12038;SDS011;6080;48.818;9.526;2023-05-29T11:01:52;49.25;;;46.60;;
12038;SDS011;6080;48.818;9.526;2023-05-29T11:06:51;35.95;;;34.10;;
12038;SDS011;6080;48.818;9.526;2023-05-29T11:09:33;34.10;;;32.28;;
12038;SDS011;6080;48.818;9.526;2023-05-29T11:12:15;38.92;;;36.83;;
12038;SDS011;6080;48.818;9.526;2023-05-29T11:15:10;33.92;;;32.22;;
12038;SDS011;6080;48.818;9.526;2023-05-29T11:20:07;27.33;;;25.73;;
12038;SDS011;6080;48.818;9.526;2023-05-29T11:25:25;25.13;;;23.60;;
12038;SDS011;6080;48.818;9.526;2023-05-29T11:27:58;25.42;;;23.90;;
12038;SDS011;6080;48.818;9.526;2023-05-29T11:30:23;28.73;;;27.02;;
12038;SDS011;6080;48.818;9.526;2023-05-29T11:32:50;26.25;;;24.65;;
12038;SDS011;6080;48.818;9.526;2023-05-29T11:35:19;24.48;;;23.10;;
12038;SDS011;6080;48.818;9.526;2023-05-29T11:37:47;14.10;;;13.27;;
12038;SDS011;6080;48.818;9.526;2023-05-29T11:40:13;11.13;;;10.25;;
12038;SDS011;6080;48.818;9.526;2023-05-29T11:42:43;14.55;;;13.70;;
12038;SDS011;6080;48.818;9.526;2023-05-29T11:45:11;24.67;;;22.95;;
12038;SDS011;6080;48.818;9.526;2023-05-29T11:47:57;19.25;;;18.17;;
12038;SDS011;6080;48.818;9.526;2023-05-29T11:50:25;30.35;;;28.75;;
12038;SDS011;6080;48.818;9.526;2023-05-29T11:52:52;29.58;;;27.85;;
12038;SDS011;6080;48.818;9.526;2023-05-29T11:55:19;34.42;;;32.63;;
12038;SDS011;6080;48.818;9.526;2023-05-29T11:57:56;27.15;;;25.63;;
12038;SDS011;6080;48.818;9.526;2023-05-29T12:00:24;34.38;;;32.40;;
12038;SDS011;6080;48.818;9.526;2023-05-29T12:02:51;32.80;;;30.67;;
12038;SDS011;6080;48.818;9.526;2023-05-29T12:05:17;23.65;;;22.17;;
12038;SDS011;6080;48.818;9.526;2023-05-29T12:07:54;13.70;;;12.82;;
12038;SDS011;6080;48.818;9.526;2023-05-29T12:10:22;14.48;;;13.63;;
12038;SDS011;6080;48.818;9.526;2023-05-29T12:12:52;15.57;;;14.48;;
12038;SDS011;6080;48.818;9.526;2023-05-29T12:15:23;13.90;;;12.75;;
12038;SDS011;6080;48.818;9.526;2023-05-29T12:17:49;20.55;;;19.38;;
12038;SDS011;6080;48.818;9.526;2023-05-29T12:20:16;22.58;;;20.95;;
12038;SDS011;6080;48.818;9.526;2023-05-29T12:22:44;13.98;;;13.25;;
12038;SDS011;6080;48.818;9.526;2023-05-29T12:25:11;21.00;;;19.75;;
12038;SDS011;6080;48.818;9.526;2023-05-29T12:27:41;20.88;;;19.50;;
12038;SDS011;6080;48.818;9.526;2023-05-29T12:32:43;6.15;;;5.75;;
12038;SDS011;6080;48.818;9.526;2023-05-29T12:35:14;6.50;;;5.97;;
12038;SDS011;6080;48.818;9.526;2023-05-29T12:38:00;6.60;;;5.45;;
12038;SDS011;6080;48.818;9.526;2023-05-29T12:40:35;5.13;;;4.72;;
12038;SDS011;6080;48.818;9.526;2023-05-29T12:43:05;6.60;;;4.15;;
12038;SDS011;6080;48.818;9.526;2023-05-29T12:45:34;5.32;;;4.90;;
12038;SDS011;6080;48.818;9.526;2023-05-29T12:48:01;5.47;;;5.07;;
12038;SDS011;6080;48.818;9.526;2023-05-29T12:50:33;4.78;;;4.38;;
12038;SDS011;6080;48.818;9.526;2023-05-29T12:53:00;4.68;;;4.40;;
12038;SDS011;6080;48.818;9.526;2023-05-29T12:55:28;4.65;;;4.18;;
12038;SDS011;6080;48.818;9.526;2023-05-29T12:57:55;5.53;;;5.03;;
12038;SDS011;6080;48.818;9.526;2023-05-29T13:00:22;6.40;;;5.80;;
12038;SDS011;6080;48.818;9.526;2023-05-29T13:02:48;6.82;;;6.15;;
12038;SDS011;6080;48.818;9.526;2023-05-29T13:05:15;9.82;;;9.15;;
12038;SDS011;6080;48.818;9.526;2023-05-29T13:07:42;13.60;;;12.55;;
12038;SDS011;6080;48.818;9.526;2023-05-29T13:10:08;26.02;;;24.38;;
12038;SDS011;6080;48.818;9.526;2023-05-29T13:12:35;21.83;;;20.58;;
12038;SDS011;6080;48.818;9.526;2023-05-29T13:15:01;12.48;;;11.75;;
12038;SDS011;6080;48.818;9.526;2023-05-29T13:17:27;7.22;;;6.22;;
12038;SDS011;6080;48.818;9.526;2023-05-29T13:19:52;10.23;;;6.00;;
12038;SDS011;6080;48.818;9.526;2023-05-29T13:22:18;5.55;;;5.03;;
12038;SDS011;6080;48.818;9.526;2023-05-29T13:24:44;5.70;;;5.15;;
12038;SDS011;6080;48.818;9.526;2023-05-29T13:27:10;4.85;;;4.40;;
12038;SDS011;6080;48.818;9.526;2023-05-29T13:29:39;5.43;;;5.05;;
12038;SDS011;6080;48.818;9.526;2023-05-29T13:32:06;4.85;;;4.45;;
12038;SDS011;6080;48.818;9.526;2023-05-29T13:34:32;7.03;;;4.68;;
12038;SDS011;6080;48.818;9.526;2023-05-29T13:36:57;5.38;;;4.97;;
12038;SDS011;6080;48.818;9.526;2023-05-29T13:39:23;5.22;;;4.93;;
12038;SDS011;6080;48.818;9.526;2023-05-29T13:41:52;5.45;;;4.97;;
12038;SDS011;6080;48.818;9.526;2023-05-29T13:44:17;5.80;;;5.40;;
12038;SDS011;6080;48.818;9.526;2023-05-29T13:46:43;5.93;;;5.53;;
12038;SDS011;6080;48.818;9.526;2023-05-29T13:49:09;5.40;;;5.00;;
12038;SDS011;6080;48.818;9.526;2023-05-29T13:51:35;5.85;;;4.97;;
12038;SDS011;6080;48.818;9.526;2023-05-29T13:54:02;6.15;;;5.80;;
12038;SDS011;6080;48.818;9.526;2023-05-29T13:56:29;6.03;;;5.40;;
12038;SDS011;6080;48.818;9.526;2023-05-29T13:58:54;5.75;;;5.35;;
12038;SDS011;6080;48.818;9.526;2023-05-29T14:01:20;6.68;;;5.70;;
12038;SDS011;6080;48.818;9.526;2023-05-29T14:03:46;8.30;;;7.57;;
12038;SDS011;6080;48.818;9.526;2023-05-29T14:06:12;7.50;;;6.80;;
12038;SDS011;6080;48.818;9.526;2023-05-29T14:08:38;7.18;;;5.93;;
12038;SDS011;6080;48.818;9.526;2023-05-29T14:11:04;7.60;;;5.60;;
12038;SDS011;6080;48.818;9.526;2023-05-29T14:13:29;6.88;;;6.35;;
12038;SDS011;6080;48.818;9.526;2023-05-29T14:15:55;8.35;;;7.75;;
12038;SDS011;6080;48.818;9.526;2023-05-29T14:18:22;8.00;;;7.50;;
12038;SDS011;6080;48.818;9.526;2023-05-29T14:20:48;7.32;;;6.43;;
12038;SDS011;6080;48.818;9.526;2023-05-29T14:23:17;10.07;;;9.50;;
12038;SDS011;6080;48.818;9.526;2023-05-29T14:25:43;7.75;;;7.05;;
12038;SDS011;6080;48.818;9.526;2023-05-29T14:28:09;6.78;;;6.22;;
12038;SDS011;6080;48.818;9.526;2023-05-29T14:30:35;7.35;;;6.85;;
12038;SDS011;6080;48.818;9.526;2023-05-29T14:33:02;12.52;;;11.43;;
12038;SDS011;6080;48.818;9.526;2023-05-29T14:35:28;21.35;;;20.05;;
12038;SDS011;6080;48.818;9.526;2023-05-29T14:37:55;37.50;;;35.40;;
12038;SDS011;6080;48.818;9.526;2023-05-29T14:40:21;22.75;;;21.40;;
12038;SDS011;6080;48.818;9.526;2023-05-29T14:42:47;19.10;;;17.80;;
12038;SDS011;6080;48.818;9.526;2023-05-29T14:45:13;35.05;;;33.25;;
12038;SDS011;6080;48.818;9.526;2023-05-29T14:47:42;31.40;;;29.70;;
12038;SDS011;6080;48.818;9.526;2023-05-29T14:50:07;53.25;;;50.55;;
12038;SDS011;6080;48.818;9.526;2023-05-29T14:52:34;50.40;;;47.88;;
12038;SDS011;6080;48.818;9.526;2023-05-29T14:55:06;47.88;;;45.28;;
12038;SDS011;6080;48.818;9.526;2023-05-29T14:57:32;46.60;;;44.00;;
12038;SDS011;6080;48.818;9.526;2023-05-29T14:59:59;46.95;;;44.58;;
12038;SDS011;6080;48.818;9.526;2023-05-29T15:02:26;43.42;;;41.10;;
12038;SDS011;6080;48.818;9.526;2023-05-29T15:04:51;67.85;;;64.53;;
12038;SDS011;6080;48.818;9.526;2023-05-29T15:07:17;45.13;;;42.80;;
12038;SDS011;6080;48.818;9.526;2023-05-29T15:09:43;50.88;;;48.17;;
12038;SDS011;6080;48.818;9.526;2023-05-29T15:12:09;37.30;;;35.05;;
12038;SDS011;6080;48.818;9.526;2023-05-29T15:14:35;38.63;;;36.33;;
12038;SDS011;6080;48.818;9.526;2023-05-29T15:17:02;31.63;;;29.98;;
12038;SDS011;6080;48.818;9.526;2023-05-29T15:19:29;9.15;;;8.35;;
12038;SDS011;6080;48.818;9.526;2023-05-29T15:21:55;8.05;;;7.35;;
12038;SDS011;6080;48.818;9.526;2023-05-29T15:24:21;11.75;;;10.82;;
12038;SDS011;6080;48.818;9.526;2023-05-29T15:26:47;14.57;;;13.00;;
12038;SDS011;6080;48.818;9.526;2023-05-29T15:29:13;22.10;;;20.52;;
12038;SDS011;6080;48.818;9.526;2023-05-29T15:31:39;41.53;;;39.22;;
12038;SDS011;6080;48.818;9.526;2023-05-29T15:34:05;66.25;;;62.90;;
12038;SDS011;6080;48.818;9.526;2023-05-29T15:36:30;43.97;;;41.72;;
12038;SDS011;6080;48.818;9.526;2023-05-29T15:38:56;34.70;;;32.63;;
12038;SDS011;6080;48.818;9.526;2023-05-29T15:41:22;42.78;;;40.38;;
12038;SDS011;6080;48.818;9.526;2023-05-29T15:43:54;39.67;;;37.53;;
12038;SDS011;6080;48.818;9.526;2023-05-29T15:46:20;43.30;;;40.97;;
12038;SDS011;6080;48.818;9.526;2023-05-29T15:48:46;52.60;;;49.95;;
12038;SDS011;6080;48.818;9.526;2023-05-29T15:51:12;36.08;;;34.20;;
12038;SDS011;6080;48.818;9.526;2023-05-29T15:53:38;21.33;;;20.23;;
12038;SDS011;6080;48.818;9.526;2023-05-29T15:56:03;7.03;;;6.45;;
12038;SDS011;6080;48.818;9.526;2023-05-29T15:58:29;6.45;;;5.13;;
12038;SDS011;6080;48.818;9.526;2023-05-29T16:00:55;5.05;;;4.65;;
12038;SDS011;6080;48.818;9.526;2023-05-29T16:03:21;4.90;;;4.50;;
12038;SDS011;6080;48.818;9.526;2023-05-29T16:05:47;4.22;;;3.85;;
12038;SDS011;6080;48.818;9.526;2023-05-29T16:08:12;5.05;;;4.70;;
12038;SDS011;6080;48.818;9.526;2023-05-29T16:10:38;5.30;;;4.90;;
12038;SDS011;6080;48.818;9.526;2023-05-29T16:13:07;5.68;;;4.43;;
12038;SDS011;6080;48.818;9.526;2023-05-29T16:15:33;6.00;;;5.43;;
12038;SDS011;6080;48.818;9.526;2023-05-29T16:17:59;8.23;;;7.60;;
12038;SDS011;6080;48.818;9.526;2023-05-29T16:20:24;22.55;;;21.17;;
12038;SDS011;6080;48.818;9.526;2023-05-29T16:22:50;32.92;;;31.17;;
12038;SDS011;6080;48.818;9.526;2023-05-29T16:25:16;51.75;;;49.03;;
12038;SDS011;6080;48.818;9.526;2023-05-29T16:27:42;51.08;;;48.53;;
12038;SDS011;6080;48.818;9.526;2023-05-29T16:30:07;51.53;;;48.80;;
12038;SDS011;6080;48.818;9.526;2023-05-29T16:32:34;67.47;;;63.17;;
12038;SDS011;6080;48.818;9.526;2023-05-29T16:35:01;63.03;;;58.80;;
12038;SDS011;6080;48.818;9.526;2023-05-29T16:37:27;54.67;;;51.83;;
12038;SDS011;6080;48.818;9.526;2023-05-29T16:39:53;56.60;;;53.60;;
12038;SDS011;6080;48.818;9.526;2023-05-29T16:42:19;52.72;;;49.88;;
12038;SDS011;6080;48.818;9.526;2023-05-29T16:44:45;50.70;;;48.00;;
12038;SDS011;6080;48.818;9.526;2023-05-29T16:47:10;51.15;;;48.53;;
12038;SDS011;6080;48.818;9.526;2023-05-29T16:49:36;54.95;;;52.15;;
12038;SDS011;6080;48.818;9.526;2023-05-29T16:52:02;53.38;;;50.33;;
12038;SDS011;6080;48.818;9.526;2023-05-29T16:54:28;45.10;;;42.00;;
12038;SDS011;6080;48.818;9.526;2023-05-29T16:56:55;48.55;;;45.92;;
12038;SDS011;6080;48.818;9.526;2023-05-29T16:59:21;51.28;;;48.67;;
12038;SDS011;6080;48.818;9.526;2023-05-29T17:01:47;48.40;;;45.90;;
12038;SDS011;6080;48.818;9.526;2023-05-29T17:04:13;45.30;;;42.92;;
12038;SDS011;6080;48.818;9.526;2023-05-29T17:06:38;41.92;;;39.88;;
12038;SDS011;6080;48.818;9.526;2023-05-29T17:09:04;25.67;;;24.33;;
12038;SDS011;6080;48.818;9.526;2023-05-29T17:11:30;19.73;;;18.50;;
12038;SDS011;6080;48.818;9.526;2023-05-29T17:13:56;14.50;;;13.48;;
12038;SDS011;6080;48.818;9.526;2023-05-29T17:16:22;14.80;;;14.00;;
12038;SDS011;6080;48.818;9.526;2023-05-29T17:18:47;11.60;;;10.48;;
12038;SDS011;6080;48.818;9.526;2023-05-29T17:21:13;10.93;;;10.10;;
12038;SDS011;6080;48.818;9.526;2023-05-29T17:23:39;11.32;;;10.43;;
12038;SDS011;6080;48.818;9.526;2023-05-29T17:26:05;11.07;;;10.38;;
12038;SDS011;6080;48.818;9.526;2023-05-29T17:28:30;11.00;;;8.75;;
12038;SDS011;6080;48.818;9.526;2023-05-29T17:30:56;9.00;;;8.40;;
12038;SDS011;6080;48.818;9.526;2023-05-29T17:33:22;10.60;;;10.00;;
12038;SDS011;6080;48.818;9.526;2023-05-29T17:35:48;11.75;;;11.05;;
12038;SDS011;6080;48.818;9.526;2023-05-29T17:38:13;14.63;;;13.82;;
12038;SDS011;6080;48.818;9.526;2023-05-29T17:40:39;27.67;;;26.30;;
12038;SDS011;6080;48.818;9.526;2023-05-29T17:43:05;35.58;;;33.42;;
12038;SDS011;6080;48.818;9.526;2023-05-29T17:45:31;44.33;;;42.00;;
12038;SDS011;6080;48.818;9.526;2023-05-29T17:47:57;47.95;;;45.47;;
12038;SDS011;6080;48.818;9.526;2023-05-29T17:50:22;47.33;;;44.78;;
12038;SDS011;6080;48.818;9.526;2023-05-29T17:52:48;56.33;;;53.45;;
12038;SDS011;6080;48.818;9.526;2023-05-29T17:55:14;59.95;;;56.63;;
12038;SDS011;6080;48.818;9.526;2023-05-29T17:57:40;57.63;;;54.42;;